createdAt,value
2018-06-25T00:01:44.516Z,102496.28
2018-06-25T00:04:17.420Z,102488.30
2018-06-25T00:06:50.370Z,102492.22
2018-06-25T00:09:21.698Z,102489.97
2018-06-25T00:11:53.018Z,102491.54
2018-06-25T00:14:26.042Z,102497.53
2018-06-25T00:16:59.249Z,102489.54
2018-06-25T00:19:32.177Z,102486.09
2018-06-25T00:22:05.405Z,102488.53
2018-06-25T00:24:39.092Z,102488.40
2018-06-25T00:27:12.228Z,102495.61
2018-06-25T00:29:46.731Z,102498.41
2018-06-25T00:32:19.617Z,102493.90
2018-06-25T00:34:52.934Z,102490.22
2018-06-25T00:37:26.952Z,102497.73
2018-06-25T00:39:56.810Z,102502.77
2018-06-25T00:42:29.537Z,102496.40
2018-06-25T00:45:02.416Z,102498.19
2018-06-25T00:47:33.794Z,102503.31
2018-06-25T00:50:05.563Z,102490.51
2018-06-25T00:52:36.704Z,102487.00
2018-06-25T00:55:08.066Z,102484.41
2018-06-25T00:57:39.429Z,102481.74
2018-06-25T01:00:12.400Z,102481.52
2018-06-25T01:02:43.787Z,102485.14
2018-06-25T01:05:15.288Z,102481.84
2018-06-25T01:07:46.670Z,102482.27
2018-06-25T01:10:21.784Z,102480.36
2018-06-25T01:12:54.771Z,102483.13
2018-06-25T01:15:25.894Z,102479.08
2018-06-25T01:17:57.177Z,102482.63
2018-06-25T01:20:30.400Z,102484.02
2018-06-25T01:23:02.687Z,102477.84
2018-06-25T01:25:32.554Z,102474.53
2018-06-25T01:28:06.869Z,102474.32
2018-06-25T01:30:39.688Z,102469.64
2018-06-25T01:33:11.831Z,102473.31
2018-06-25T01:35:45.619Z,102467.55
2018-06-25T01:38:18.696Z,102463.84
2018-06-25T01:40:50.091Z,102462.64
2018-06-25T01:43:21.482Z,102463.09
2018-06-25T01:45:55.793Z,102472.36
2018-06-25T01:48:28.687Z,102471.78
2018-06-25T01:51:01.521Z,102472.36
2018-06-25T01:53:34.466Z,102474.39
2018-06-25T01:56:05.726Z,102470.00
2018-06-25T01:58:38.813Z,102472.72
2018-06-25T02:01:10.633Z,102470.87
2018-06-25T02:03:44.928Z,102469.59
2018-06-25T02:06:19.246Z,102471.62
2018-06-25T02:08:53.699Z,102471.77
2018-06-25T02:11:26.506Z,102478.00
2018-06-25T02:13:59.285Z,102479.72
2018-06-25T02:16:33.586Z,102481.41
2018-06-25T02:19:07.919Z,102479.92
2018-06-25T02:21:42.191Z,102476.78
2018-06-25T02:24:15.430Z,102470.71
2018-06-25T02:26:48.181Z,102472.25
2018-06-25T02:29:21.310Z,102476.57
2018-06-25T02:31:55.648Z,102474.64
2018-06-25T02:34:26.593Z,102471.28
2018-06-25T02:36:59.362Z,102478.70
2018-06-25T02:39:32.820Z,102477.35
2018-06-25T02:42:04.865Z,102475.17
2018-06-25T02:44:37.989Z,102472.79
2018-06-25T02:47:10.721Z,102480.41
2018-06-25T02:49:42.348Z,102473.80
2018-06-25T02:52:14.672Z,102473.91
2018-06-25T02:54:46.719Z,102473.69
2018-06-25T02:57:20.014Z,102475.81
2018-06-25T02:59:51.730Z,102475.77
2018-06-25T03:02:24.663Z,102476.56
2018-06-25T03:04:59.048Z,102474.02
2018-06-25T03:07:32.047Z,102471.66
2018-06-25T03:10:04.080Z,102467.83
2018-06-25T03:12:33.833Z,102474.38
2018-06-25T03:15:05.983Z,102482.38
2018-06-25T03:17:37.435Z,102481.63
2018-06-25T03:20:08.119Z,102477.80
2018-06-25T03:22:40.854Z,102477.09
2018-06-25T03:25:12.479Z,102478.27
2018-06-25T03:27:45.997Z,102482.75
2018-06-25T03:30:18.865Z,102491.33
2018-06-25T03:32:52.559Z,102490.67
2018-06-25T03:35:23.985Z,102490.63
2018-06-25T03:37:57.041Z,102485.78
2018-06-25T03:40:28.399Z,102489.83
2018-06-25T03:43:01.174Z,102487.13
2018-06-25T03:45:33.839Z,102486.11
2018-06-25T03:48:06.033Z,102491.64
2018-06-25T03:50:39.196Z,102492.19
2018-06-25T03:53:13.519Z,102493.58
2018-06-25T03:55:46.298Z,102493.41
2018-06-25T03:58:15.585Z,102499.28
2018-06-25T04:00:48.366Z,102503.53
2018-06-25T04:03:20.117Z,102504.45
2018-06-25T04:05:51.426Z,102501.47
2018-06-25T04:08:24.810Z,102499.12
2018-06-25T04:10:54.828Z,102501.83
2018-06-25T04:13:26.850Z,102505.98
2018-06-25T04:15:59.022Z,102509.02
2018-06-25T04:18:33.174Z,102507.58
2018-06-25T04:21:05.986Z,102513.61
2018-06-25T04:23:35.875Z,102518.30
2018-06-25T04:26:07.931Z,102515.86
2018-06-25T04:28:42.293Z,102516.81
2018-06-25T04:31:16.610Z,102509.88
2018-06-25T04:33:47.401Z,102521.98
2018-06-25T04:36:20.290Z,102518.15
2018-06-25T04:38:50.118Z,102530.14
2018-06-25T04:41:23.241Z,102524.34
2018-06-25T04:43:55.712Z,102534.98
2018-06-25T04:46:29.245Z,102539.63
2018-06-25T04:49:03.534Z,102540.45
2018-06-25T04:51:36.471Z,102530.17
2018-06-25T04:54:09.897Z,102539.04
2018-06-25T04:56:41.281Z,102534.87
2018-06-25T04:59:14.045Z,102534.02
2018-06-25T05:01:45.444Z,102539.61
2018-06-25T05:04:19.829Z,102546.50
2018-06-25T05:06:52.631Z,102544.64
2018-06-25T05:09:25.403Z,102544.91
2018-06-25T05:11:58.253Z,102544.34
2018-06-25T05:14:29.593Z,102550.46
2018-06-25T05:17:02.563Z,102548.77
2018-06-25T05:19:35.380Z,102548.87
2018-06-25T05:22:09.690Z,102551.91
2018-06-25T05:24:40.442Z,102558.90
2018-06-25T05:27:11.816Z,102560.22
2018-06-25T05:29:44.409Z,102563.15
2018-06-25T05:32:17.301Z,102568.56
2018-06-25T05:34:50.206Z,102569.53
2018-06-25T05:37:22.269Z,102564.92
2018-06-25T05:39:55.210Z,102568.93
2018-06-25T05:42:27.956Z,102566.64
2018-06-25T05:45:00.796Z,102573.20
2018-06-25T05:47:29.940Z,102571.94
2018-06-25T05:50:04.258Z,102574.12
2018-06-25T05:52:35.581Z,102577.83
2018-06-25T05:55:08.493Z,102584.43
2018-06-25T05:57:41.360Z,102586.59
2018-06-25T06:00:14.540Z,102588.19
2018-06-25T06:02:46.600Z,102593.88
2018-06-25T06:05:21.218Z,102585.48
2018-06-25T06:07:52.572Z,102595.45
2018-06-25T06:10:26.187Z,102595.00
2018-06-25T06:12:59.230Z,102604.34
2018-06-25T06:15:33.834Z,102597.29
2018-06-25T06:18:05.125Z,102600.59
2018-06-25T06:20:37.903Z,102596.89
2018-06-25T06:23:11.209Z,102590.20
2018-06-25T06:25:43.939Z,102585.77
2018-06-25T06:28:18.448Z,102593.25
2018-06-25T06:30:51.566Z,102588.71
2018-06-25T06:33:22.169Z,102592.94
2018-06-25T06:35:54.981Z,102591.78
2018-06-25T06:38:25.628Z,102592.66
2018-06-25T06:40:58.605Z,102587.82
2018-06-25T06:43:30.186Z,102594.56
2018-06-25T06:46:03.121Z,102595.59
2018-06-25T06:48:35.963Z,102595.45
2018-06-25T06:51:09.654Z,102594.91
2018-06-25T06:53:41.792Z,102591.95
2018-06-25T06:56:14.648Z,102596.08
2018-06-25T06:58:48.938Z,102599.10
2018-06-25T07:01:21.823Z,102606.15
2018-06-25T07:03:54.144Z,102594.08
2018-06-25T07:06:28.518Z,102600.31
2018-06-25T07:09:02.800Z,102603.42
2018-06-25T07:11:34.866Z,102604.17
2018-06-25T07:14:13.785Z,102603.89
2018-06-25T07:16:46.664Z,102609.20
2018-06-25T07:19:16.605Z,102609.58
2018-06-25T07:21:49.398Z,102610.41
2018-06-25T07:24:23.684Z,102619.15
2018-06-25T07:26:55.173Z,102614.50
2018-06-25T07:29:25.017Z,102616.09
2018-06-25T07:31:57.050Z,102620.44
2018-06-25T07:34:31.658Z,102625.24
2018-06-25T07:37:04.505Z,102625.18
2018-06-25T07:39:39.220Z,102623.61
2018-06-25T07:42:12.026Z,102626.12
2018-06-25T07:44:44.890Z,102621.00
2018-06-25T07:47:19.145Z,102624.90
2018-06-25T07:49:49.676Z,102627.27
2018-06-25T07:52:22.562Z,102633.06
2018-06-25T07:54:56.902Z,102628.68
2018-06-25T07:57:29.591Z,102625.99
2018-06-25T08:00:02.647Z,102621.27
2018-06-25T08:02:35.430Z,102630.61
2018-06-25T08:05:09.113Z,102628.05
2018-06-25T08:07:40.500Z,102629.43
2018-06-25T08:10:14.807Z,102631.34
2018-06-25T08:12:48.196Z,102631.38
2018-06-25T08:15:20.994Z,102637.50
2018-06-25T08:17:51.859Z,102643.61
2018-06-25T08:20:24.733Z,102639.56
2018-06-25T08:22:56.468Z,102640.52
2018-06-25T08:25:27.867Z,102638.90
2018-06-25T08:28:03.413Z,102636.58
2018-06-25T08:30:35.536Z,102642.95
2018-06-25T08:33:07.124Z,102651.03
2018-06-25T08:35:38.946Z,102649.40
2018-06-25T08:38:12.644Z,102645.55
2018-06-25T08:40:47.199Z,102658.53
2018-06-25T08:43:19.968Z,102659.95
2018-06-25T08:45:51.509Z,102656.55
2018-06-25T08:48:20.461Z,102651.33
2018-06-25T08:50:51.427Z,102658.02
2018-06-25T08:53:23.627Z,102654.03
2018-06-25T08:55:56.711Z,102652.80
2018-06-25T08:58:30.932Z,102660.80
2018-06-25T09:01:04.916Z,102654.16
2018-06-25T09:03:38.268Z,102655.16
2018-06-25T09:06:12.867Z,102653.37
2018-06-25T09:08:45.861Z,102655.85
2018-06-25T09:11:20.280Z,102649.68
2018-06-25T09:13:53.183Z,102649.80
2018-06-25T09:16:24.499Z,102658.02
2018-06-25T09:18:56.412Z,102658.31
2018-06-25T09:21:27.867Z,102658.81
2018-06-25T09:23:57.807Z,102656.05
2018-06-25T09:26:29.260Z,102664.61
2018-06-25T09:29:03.645Z,102660.00
2018-06-25T09:31:32.821Z,102663.86
2018-06-25T09:34:23.482Z,102664.23
2018-06-25T09:36:54.910Z,102684.26
2018-06-25T09:39:29.799Z,102673.83
2018-06-25T09:42:02.861Z,102671.80
2018-06-25T09:44:36.679Z,102676.79
2018-06-25T09:47:08.191Z,102678.39
2018-06-25T09:49:41.254Z,102678.58
2018-06-25T09:52:14.000Z,102679.81
2018-06-25T09:54:45.157Z,102680.69
2018-06-25T09:57:15.759Z,102682.49
2018-06-25T09:59:49.376Z,102674.50
2018-06-25T10:02:22.326Z,102682.47
2018-06-25T10:04:54.910Z,102676.07
2018-06-25T10:07:27.826Z,102677.66
2018-06-25T10:09:57.693Z,102677.11
2018-06-25T10:12:30.712Z,102680.77
2018-06-25T10:15:00.613Z,102681.05
2018-06-25T10:17:35.202Z,102686.74
2018-06-25T10:20:08.093Z,102680.98
2018-06-25T10:22:40.269Z,102685.34
2018-06-25T10:25:13.074Z,102685.70
2018-06-25T10:27:46.062Z,102677.36
2018-06-25T10:30:19.051Z,102674.27
2018-06-25T10:32:50.403Z,102670.97
2018-06-25T10:35:23.797Z,102665.94
2018-06-25T10:37:56.524Z,102663.34
2018-06-25T10:40:28.006Z,102662.53
2018-06-25T10:43:00.913Z,102656.67
2018-06-25T10:45:33.718Z,102655.49
2018-06-25T10:48:08.097Z,102655.99
2018-06-25T10:50:42.292Z,102651.76
2018-06-25T10:53:15.094Z,102650.69
2018-06-25T10:55:45.002Z,102655.34
2018-06-25T10:58:19.039Z,102652.10
2018-06-25T11:00:52.092Z,102655.95
2018-06-25T11:03:23.251Z,102641.80
2018-06-25T11:05:56.356Z,102642.05
2018-06-25T11:08:27.900Z,102635.81
2018-06-25T11:11:00.862Z,102637.43
2018-06-25T11:13:30.751Z,102631.38
2018-06-25T11:16:04.293Z,102630.72
2018-06-25T11:18:37.732Z,102630.12
2018-06-25T11:21:09.823Z,102632.69
2018-06-25T11:23:42.746Z,102627.16
2018-06-25T11:26:16.544Z,102625.50
2018-06-25T11:28:49.628Z,102623.81
2018-06-25T11:31:22.543Z,102623.79
2018-06-25T11:33:56.161Z,102629.95
2018-06-25T11:36:29.133Z,102633.31
2018-06-25T11:39:02.151Z,102631.56
2018-06-25T11:41:36.513Z,102622.61
2018-06-25T11:44:09.437Z,102624.25
2018-06-25T11:46:42.448Z,102620.55
2018-06-25T11:49:16.904Z,102618.48
2018-06-25T11:51:51.531Z,102616.93
2018-06-25T11:54:21.432Z,102621.20
2018-06-25T11:56:55.885Z,102621.44
2018-06-25T11:59:29.226Z,102620.00
2018-06-25T12:02:03.109Z,102625.72
2018-06-25T12:04:32.994Z,102615.99
2018-06-25T12:07:05.278Z,102619.34
2018-06-25T12:09:38.659Z,102617.41
2018-06-25T12:12:09.316Z,102623.73
2018-06-25T12:14:43.834Z,102619.55
2018-06-25T12:17:16.879Z,102626.03
2018-06-25T12:19:49.291Z,102623.88
2018-06-25T12:22:20.714Z,102616.64
2018-06-25T12:24:54.267Z,102610.77
2018-06-25T12:27:28.581Z,102613.23
2018-06-25T12:30:02.982Z,102606.63
2018-06-25T12:32:36.496Z,102608.63
2018-06-25T12:35:08.622Z,102610.41
2018-06-25T12:37:41.302Z,102600.30
2018-06-25T12:40:14.227Z,102603.05
2018-06-25T12:42:47.333Z,102598.61
2018-06-25T12:45:21.267Z,102593.81
2018-06-25T12:47:53.739Z,102598.97
2018-06-25T12:50:27.048Z,102592.45
2018-06-25T12:52:59.241Z,102599.33
2018-06-25T12:55:32.602Z,102607.53
2018-06-25T12:58:07.062Z,102603.79
2018-06-25T13:00:39.936Z,102603.19
2018-06-25T13:03:14.759Z,102607.38
2018-06-25T13:05:47.490Z,102609.72
2018-06-25T13:08:21.090Z,102611.36
2018-06-25T13:10:53.936Z,102603.14
2018-06-25T13:13:27.294Z,102618.94
2018-06-25T13:16:00.395Z,102610.63
2018-06-25T13:18:33.199Z,102601.38
2018-06-25T13:21:07.559Z,102601.94
2018-06-25T13:23:40.061Z,102605.61
2018-06-25T13:26:14.382Z,102605.79
2018-06-25T13:28:47.147Z,102606.81
2018-06-25T13:31:20.222Z,102605.11
2018-06-25T13:33:53.787Z,102606.72
2018-06-25T13:36:25.200Z,102608.17
2018-06-25T13:38:58.237Z,102609.55
2018-06-25T13:41:31.603Z,102609.42
2018-06-25T13:44:05.950Z,102607.27
2018-06-25T13:46:37.596Z,102602.91
2018-06-25T13:49:09.117Z,102606.95
2018-06-25T13:51:40.531Z,102601.19
2018-06-25T13:54:13.446Z,102602.45
2018-06-25T13:56:46.324Z,102603.59
2018-06-25T13:59:20.727Z,102602.69
2018-06-25T14:01:54.244Z,102598.75
2018-06-25T14:04:29.009Z,102602.17
2018-06-25T14:06:58.924Z,102598.55
2018-06-25T14:09:31.844Z,102597.66
2018-06-25T14:12:06.591Z,102595.80
2018-06-25T14:14:41.022Z,102601.76
2018-06-25T14:17:15.453Z,102602.17
2018-06-25T14:19:49.340Z,102597.76
2018-06-25T14:22:22.189Z,102597.66
2018-06-25T14:25:03.582Z,102593.86
2018-06-25T14:27:52.554Z,102594.23
2018-06-25T14:30:41.699Z,102593.81
2018-06-25T14:33:17.512Z,102596.89
2018-06-25T14:35:51.263Z,102599.78
2018-06-25T14:38:24.955Z,102600.80
2018-06-25T14:40:55.385Z,102600.20
2018-06-25T14:43:26.656Z,102595.33
2018-06-25T14:45:56.613Z,102598.34
2018-06-25T14:48:30.588Z,102595.05
2018-06-25T14:51:01.948Z,102592.09
2018-06-25T14:53:35.506Z,102593.15
2018-06-25T14:56:05.560Z,102597.81
2018-06-25T14:58:39.880Z,102588.74
2018-06-25T15:01:11.793Z,102588.16
2018-06-25T15:03:46.666Z,102596.11
2018-06-25T15:06:20.200Z,102590.19
2018-06-25T15:08:52.128Z,102594.66
2018-06-25T15:11:25.490Z,102590.06
2018-06-25T15:13:58.058Z,102587.50
2018-06-25T15:16:29.956Z,102578.39
2018-06-25T15:19:02.728Z,102588.22
2018-06-25T15:21:34.865Z,102583.09
2018-06-25T15:24:08.549Z,102580.92
2018-06-25T15:26:38.364Z,102580.04
2018-06-25T15:29:11.105Z,102581.02
2018-06-25T15:31:43.924Z,102582.64
2018-06-25T15:34:15.348Z,102579.78
2018-06-25T15:36:49.055Z,102575.70
2018-06-25T15:39:20.499Z,102579.88
2018-06-25T15:41:49.928Z,102580.10
2018-06-25T15:44:24.139Z,102582.20
2018-06-25T15:46:58.451Z,102575.34
2018-06-25T15:49:28.264Z,102582.44
2018-06-25T15:51:58.286Z,102579.51
2018-06-25T15:54:31.451Z,102582.16
2018-06-25T15:57:05.762Z,102577.78
2018-06-25T15:59:40.101Z,102581.67
2018-06-25T16:02:10.041Z,102574.66
2018-06-25T16:04:41.414Z,102579.81
2018-06-25T16:07:12.940Z,102581.38
2018-06-25T16:09:47.285Z,102577.34
2018-06-25T16:12:21.480Z,102577.20
2018-06-25T16:14:55.853Z,102575.55
2018-06-25T16:17:28.898Z,102568.56
2018-06-25T16:19:59.879Z,102564.20
2018-06-25T16:22:29.715Z,102564.59
2018-06-25T16:25:04.301Z,102576.12
2018-06-25T16:27:38.127Z,102572.86
2018-06-25T16:30:11.617Z,102573.98
2018-06-25T16:32:43.010Z,102570.21
2018-06-25T16:35:14.546Z,102570.77
2018-06-25T16:37:45.418Z,102572.39
2018-06-25T16:40:19.892Z,102575.41
2018-06-25T16:42:53.579Z,102573.53
2018-06-25T16:45:22.881Z,102577.38
2018-06-25T16:47:54.719Z,102582.58
2018-06-25T16:50:28.518Z,102578.25
2018-06-25T16:53:00.054Z,102569.32
2018-06-25T16:55:34.715Z,102570.05
2018-06-25T16:58:06.276Z,102576.45
2018-06-25T17:00:40.544Z,102583.77
2018-06-25T17:03:13.993Z,102582.58
2018-06-25T17:05:46.049Z,102582.63
2018-06-25T17:08:18.857Z,102583.26
2018-06-25T17:10:52.117Z,102588.91
2018-06-25T17:13:25.658Z,102588.11
2018-06-25T17:15:58.557Z,102582.03
2018-06-25T17:18:29.976Z,102584.75
2018-06-25T17:21:02.815Z,102584.78
2018-06-25T17:23:34.282Z,102579.21
2018-06-25T17:26:08.546Z,102580.80
2018-06-25T17:28:42.779Z,102587.03
2018-06-25T17:31:14.314Z,102589.07
2018-06-25T17:33:47.432Z,102580.74
2018-06-25T17:36:18.813Z,102586.22
2018-06-25T17:38:53.271Z,102587.11
2018-06-25T17:41:26.084Z,102587.33
2018-06-25T17:43:59.637Z,102577.39
2018-06-25T17:46:30.979Z,102591.45
2018-06-25T17:49:04.311Z,102584.19
2018-06-25T17:51:36.284Z,102592.50
2018-06-25T17:54:11.007Z,102599.98
2018-06-25T17:56:42.355Z,102599.14
2018-06-25T17:59:13.744Z,102601.21
2018-06-25T18:01:46.681Z,102600.38
2018-06-25T18:04:20.070Z,102606.63
2018-06-25T18:06:53.290Z,102608.56
2018-06-25T18:09:24.734Z,102603.34
2018-06-25T18:11:59.347Z,102611.03
2018-06-25T18:14:29.264Z,102610.34
2018-06-25T18:17:02.185Z,102617.27
2018-06-25T18:19:35.136Z,102619.02
2018-06-25T18:22:06.483Z,102615.36
2018-06-25T18:24:38.590Z,102614.84
2018-06-25T18:27:11.903Z,102618.59
2018-06-25T18:29:44.794Z,102621.91
2018-06-25T18:32:17.661Z,102628.13
2018-06-25T18:34:50.108Z,102624.30
2018-06-25T18:37:23.221Z,102628.54
2018-06-25T18:39:56.303Z,102629.80
2018-06-25T18:42:29.417Z,102621.72
2018-06-25T18:45:04.013Z,102625.08
2018-06-25T18:47:37.350Z,102630.72
2018-06-25T18:50:09.560Z,102631.15
2018-06-25T18:52:41.010Z,102633.26
2018-06-25T18:55:11.971Z,102636.27
2018-06-25T18:57:42.944Z,102635.33
2018-06-25T19:00:17.301Z,102636.63
2018-06-25T19:02:50.494Z,102637.36
2018-06-25T19:05:23.470Z,102632.25
2018-06-25T19:07:57.936Z,102634.45
2018-06-25T19:10:32.862Z,102640.64
2018-06-25T19:13:05.920Z,102633.28
2018-06-25T19:15:35.148Z,102636.84
2018-06-25T19:18:07.806Z,102637.23
2018-06-25T19:20:40.939Z,102635.84
2018-06-25T19:23:12.340Z,102636.98
2018-06-25T19:25:47.593Z,102634.98
2018-06-25T19:28:20.582Z,102638.08
2018-06-25T19:30:53.571Z,102643.15
2018-06-25T19:33:25.019Z,102643.37
2018-06-25T19:35:57.029Z,102644.55
2018-06-25T19:38:32.981Z,102648.09
2018-06-25T19:41:04.780Z,102653.66
2018-06-25T19:43:36.955Z,102656.78
2018-06-25T19:46:09.929Z,102652.98
2018-06-25T19:48:42.887Z,102656.59
2018-06-25T19:51:15.823Z,102655.64
2018-06-25T19:53:50.812Z,102654.80
2018-06-25T19:56:25.246Z,102665.13
2018-06-25T19:58:55.966Z,102662.91
2018-06-25T20:01:29.090Z,102674.28
2018-06-25T20:04:03.605Z,102672.46
2018-06-25T20:06:36.583Z,102674.98
2018-06-25T20:09:13.969Z,102680.75
2018-06-25T20:11:46.942Z,102684.88
2018-06-25T20:14:16.878Z,102683.13
2018-06-25T20:16:50.038Z,102675.95
2018-06-25T20:19:21.441Z,102679.59
2018-06-25T20:21:54.476Z,102684.42
2018-06-25T20:24:25.933Z,102681.33
2018-06-25T20:26:58.996Z,102686.25
2018-06-25T20:29:31.883Z,102689.62
2018-06-25T20:32:03.600Z,102692.20
2018-06-25T20:34:38.075Z,102686.74
2018-06-25T20:37:12.000Z,102692.27
2018-06-25T20:39:46.885Z,102695.03
2018-06-25T20:42:19.874Z,102701.84
2018-06-25T20:44:53.042Z,102699.50
2018-06-25T20:47:24.275Z,102701.56
2018-06-25T20:49:59.084Z,102705.74
2018-06-25T20:52:31.268Z,102707.18
2018-06-25T20:55:02.775Z,102703.70
2018-06-25T20:57:36.474Z,102707.60
2018-06-25T21:00:08.088Z,102709.16
2018-06-25T21:02:39.505Z,102712.21
2018-06-25T21:05:13.014Z,102709.93
2018-06-25T21:07:47.442Z,102712.39
2018-06-25T21:10:20.581Z,102708.88
2018-06-25T21:12:52.171Z,102711.24
2018-06-25T21:15:25.554Z,102707.51
2018-06-25T21:17:57.988Z,102709.83
2018-06-25T21:20:29.653Z,102706.62
2018-06-25T21:23:02.571Z,102710.02
2018-06-25T21:25:35.916Z,102708.86
2018-06-25T21:28:08.486Z,102710.80
2018-06-25T21:30:40.015Z,102708.27
2018-06-25T21:33:13.921Z,102707.36
2018-06-25T21:35:48.562Z,102710.84
2018-06-25T21:38:20.897Z,102712.38
2018-06-25T21:40:54.135Z,102714.05
2018-06-25T21:43:27.004Z,102708.95
2018-06-25T21:46:00.278Z,102707.27
2018-06-25T21:48:32.962Z,102712.77
2018-06-25T21:51:04.339Z,102709.41
2018-06-25T21:53:39.036Z,102713.52
2018-06-25T21:56:13.802Z,102714.37
2018-06-25T21:58:46.788Z,102716.67
2018-06-25T22:01:16.982Z,102716.12
2018-06-25T22:03:50.294Z,102715.08
2018-06-25T22:06:22.233Z,102711.83
2018-06-25T22:08:55.249Z,102711.76
2018-06-25T22:11:28.465Z,102717.30
2018-06-25T22:14:00.043Z,102715.19
2018-06-25T22:16:30.015Z,102711.39
2018-06-25T22:19:03.369Z,102709.59
2018-06-25T22:21:33.326Z,102708.63
2018-06-25T22:24:06.497Z,102709.56
2018-06-25T22:26:41.134Z,102712.58
2018-06-25T22:29:11.190Z,102712.97
2018-06-25T22:31:44.212Z,102708.23
2018-06-25T22:34:15.163Z,102706.52
2018-06-25T22:36:46.570Z,102713.44
2018-06-25T22:39:21.173Z,102714.34
2018-06-25T22:41:54.633Z,102721.56
2018-06-25T22:44:26.115Z,102711.61
2018-06-25T22:46:59.372Z,102716.17
2018-06-25T22:49:32.451Z,102710.86
2018-06-25T22:52:04.098Z,102708.99
2018-06-25T22:54:35.708Z,102712.44
2018-06-25T22:57:07.299Z,102710.18
2018-06-25T22:59:38.284Z,102708.75
2018-06-25T23:02:12.423Z,102717.00
2018-06-25T23:04:45.995Z,102713.77
2018-06-25T23:07:17.736Z,102705.69
2018-06-25T23:09:50.991Z,102706.05
2018-06-25T23:12:25.902Z,102700.02
2018-06-25T23:14:59.012Z,102702.11
2018-06-25T23:17:32.472Z,102697.17
2018-06-25T23:20:02.295Z,102691.56
2018-06-25T23:22:34.236Z,102702.55
2018-06-25T23:25:07.748Z,102701.31
2018-06-25T23:27:40.695Z,102703.11
2018-06-25T23:30:15.207Z,102705.33
2018-06-25T23:32:47.063Z,102708.48
2018-06-25T23:35:20.484Z,102709.67
2018-06-25T23:37:52.658Z,102705.80
2018-06-25T23:40:22.858Z,102711.20
2018-06-25T23:42:54.547Z,102709.81
2018-06-25T23:45:27.682Z,102705.86
2018-06-25T23:47:59.493Z,102706.39
2018-06-25T23:50:30.972Z,102706.42
2018-06-25T23:53:04.306Z,102702.67
2018-06-25T23:55:37.386Z,102707.84
2018-06-25T23:58:10.430Z,102706.35
